CFS7284 KLBB-KAFW
Flight info
| Callsign | CFS7284 |
|---|---|
| Flight time | N/A |
| Altitude | 19000 |
| Route | DCT CDS DCT SPS MOTZA1 |
| Aircraft | AT73/M-SDFGIRY/S |
Departure
| Time | N/A |
|---|---|
| Airport | Lubbock Preston Smith International Airport (KLBB) |
Arrival
| Time | 2026-04-29 00:19 |
|---|---|
| Airport | Perot Field/Fort Worth Alliance Airport (KAFW) |
| Time | Latitude | Longitude | Altitude | Speed | Heading |
|---|---|---|---|---|---|
| 2026-04-28 23:55 | 34.03339 | -98.79416 | 18885 ft | 362 kts | 109° |
| 2026-04-28 23:55 | 34.02662 | -98.76493 | 18893 ft | 362 kts | 109° |
| 2026-04-28 23:55 | 34.01985 | -98.73570 | 18897 ft | 362 kts | 108° |
| 2026-04-28 23:55 | 34.01308 | -98.70639 | 18900 ft | 362 kts | 109° |
| 2026-04-28 23:56 | 34.00626 | -98.67710 | 18903 ft | 363 kts | 109° |
| 2026-04-28 23:56 | 33.99941 | -98.64779 | 18908 ft | 363 kts | 109° |
| 2026-04-28 23:56 | 33.99487 | -98.62838 | 18911 ft | 363 kts | 109° |
| 2026-04-28 23:56 | 33.98425 | -98.59042 | 18914 ft | 356 kts | 120° |
| 2026-04-28 23:57 | 33.97202 | -98.56468 | 18915 ft | 353 kts | 130° |
| 2026-04-28 23:57 | 33.95752 | -98.54087 | 18915 ft | 352 kts | 133° |
| 2026-04-28 23:57 | 33.94749 | -98.52500 | 18916 ft | 353 kts | 133° |
| 2026-04-28 23:57 | 33.93306 | -98.50145 | 18943 ft | 354 kts | 131° |
| 2026-04-28 23:58 | 33.91900 | -98.47709 | 18930 ft | 354 kts | 130° |
| 2026-04-28 23:58 | 33.90496 | -98.45264 | 18937 ft | 354 kts | 130° |
| 2026-04-28 23:58 | 33.89089 | -98.42838 | 18874 ft | 354 kts | 130° |
| 2026-04-28 23:58 | 33.87674 | -98.40412 | 18876 ft | 354 kts | 130° |
| 2026-04-28 23:59 | 33.86261 | -98.37981 | 18876 ft | 354 kts | 130° |
| 2026-04-28 23:59 | 33.84847 | -98.35553 | 18879 ft | 354 kts | 130° |
| 2026-04-28 23:59 | 33.83434 | -98.33124 | 18878 ft | 354 kts | 130° |
| 2026-04-28 23:59 | 33.82015 | -98.30694 | 18870 ft | 354 kts | 130° |
| 2026-04-29 00:00 | 33.80602 | -98.28267 | 18873 ft | 354 kts | 131° |
| 2026-04-29 00:00 | 33.79188 | -98.25845 | 18876 ft | 354 kts | 131° |
| 2026-04-29 00:00 | 33.77768 | -98.23419 | 18858 ft | 355 kts | 131° |
| 2026-04-29 00:00 | 33.76349 | -98.20988 | 18532 ft | 350 kts | 130° |
| 2026-04-29 00:01 | 33.74985 | -98.18656 | 18197 ft | 340 kts | 131° |
| 2026-04-29 00:01 | 33.73639 | -98.16360 | 17810 ft | 332 kts | 131° |
| 2026-04-29 00:01 | 33.72322 | -98.14108 | 17410 ft | 326 kts | 131° |
| 2026-04-29 00:01 | 33.71000 | -98.11854 | 17020 ft | 322 kts | 131° |
| 2026-04-29 00:02 | 33.69743 | -98.09711 | 16642 ft | 318 kts | 131° |
| 2026-04-29 00:02 | 33.68470 | -98.07544 | 16252 ft | 316 kts | 131° |
| 2026-04-29 00:02 | 33.67217 | -98.05397 | 15892 ft | 313 kts | 130° |
| 2026-04-29 00:02 | 33.65962 | -98.03258 | 15533 ft | 312 kts | 131° |
| 2026-04-29 00:03 | 33.64715 | -98.01139 | 15171 ft | 310 kts | 131° |
| 2026-04-29 00:03 | 33.63474 | -97.99024 | 14810 ft | 309 kts | 131° |
| 2026-04-29 00:03 | 33.62240 | -97.96927 | 14455 ft | 305 kts | 131° |
| 2026-04-29 00:03 | 33.61034 | -97.94874 | 14103 ft | 298 kts | 131° |
| 2026-04-29 00:04 | 33.59859 | -97.92877 | 13768 ft | 293 kts | 131° |
| 2026-04-29 00:04 | 33.58689 | -97.90895 | 13397 ft | 290 kts | 131° |
| 2026-04-29 00:04 | 33.57514 | -97.88906 | 13011 ft | 287 kts | 131° |
| 2026-04-29 00:04 | 33.56364 | -97.86958 | 12634 ft | 285 kts | 131° |
| 2026-04-29 00:05 | 33.55236 | -97.85056 | 12263 ft | 283 kts | 131° |
| 2026-04-29 00:05 | 33.54033 | -97.83246 | 11885 ft | 270 kts | 146° |
| 2026-04-29 00:05 | 33.52490 | -97.82077 | 11530 ft | 259 kts | 160° |
| 2026-04-29 00:05 | 33.50868 | -97.81193 | 11171 ft | 254 kts | 168° |
| 2026-04-29 00:06 | 33.49226 | -97.80590 | 11075 ft | 240 kts | 174° |
| 2026-04-29 00:06 | 33.47640 | -97.80114 | 11034 ft | 230 kts | 175° |
| 2026-04-29 00:06 | 33.46090 | -97.79655 | 10809 ft | 231 kts | 175° |
| 2026-04-29 00:06 | 33.44505 | -97.79193 | 10468 ft | 238 kts | 174° |
| 2026-04-29 00:07 | 33.42886 | -97.78701 | 10107 ft | 242 kts | 172° |
| 2026-04-29 00:07 | 33.41258 | -97.78167 | 9761 ft | 244 kts | 171° |
| 2026-04-29 00:07 | 33.39613 | -97.77622 | 9383 ft | 245 kts | 171° |
| 2026-04-29 00:07 | 33.37967 | -97.77082 | 9012 ft | 245 kts | 171° |
| 2026-04-29 00:08 | 33.36313 | -97.76540 | 8645 ft | 245 kts | 171° |
| 2026-04-29 00:08 | 33.34690 | -97.76010 | 8323 ft | 244 kts | 170° |
| 2026-04-29 00:08 | 33.33080 | -97.75485 | 8164 ft | 236 kts | 171° |
| 2026-04-29 00:08 | 33.31531 | -97.74980 | 8091 ft | 226 kts | 170° |
| 2026-04-29 00:09 | 33.30038 | -97.74495 | 8058 ft | 218 kts | 171° |
| 2026-04-29 00:09 | 33.28601 | -97.74031 | 8043 ft | 211 kts | 171° |
| 2026-04-29 00:09 | 33.27204 | -97.73579 | 8033 ft | 205 kts | 171° |
| 2026-04-29 00:09 | 33.25898 | -97.72976 | 8026 ft | 205 kts | 148° |
| 2026-04-29 00:10 | 33.25094 | -97.71564 | 8035 ft | 208 kts | 113° |
| 2026-04-29 00:10 | 33.24627 | -97.69926 | 7929 ft | 213 kts | 111° |
| 2026-04-29 00:10 | 33.24143 | -97.68217 | 7739 ft | 220 kts | 111° |
| 2026-04-29 00:10 | 33.23602 | -97.66480 | 7527 ft | 225 kts | 114° |
| 2026-04-29 00:11 | 33.22976 | -97.64747 | 7330 ft | 229 kts | 117° |
| 2026-04-29 00:11 | 33.22299 | -97.63041 | 7127 ft | 231 kts | 118° |
| 2026-04-29 00:11 | 33.20885 | -97.59567 | 6715 ft | 234 kts | 118° |
| 2026-04-29 00:12 | 33.20169 | -97.57822 | 6498 ft | 235 kts | 118° |
| 2026-04-29 00:12 | 33.19462 | -97.56063 | 6272 ft | 236 kts | 118° |
| 2026-04-29 00:12 | 33.18759 | -97.54292 | 6051 ft | 236 kts | 118° |
| 2026-04-29 00:12 | 33.18053 | -97.52521 | 5826 ft | 235 kts | 117° |
| 2026-04-29 00:13 | 33.17400 | -97.50743 | 5589 ft | 233 kts | 106° |
| 2026-04-29 00:13 | 33.17369 | -97.48834 | 5327 ft | 230 kts | 83° |
| 2026-04-29 00:13 | 33.17603 | -97.46933 | 5115 ft | 231 kts | 80° |
| 2026-04-29 00:13 | 33.17865 | -97.45033 | 4893 ft | 232 kts | 80° |
| 2026-04-29 00:14 | 33.18114 | -97.43130 | 4675 ft | 231 kts | 81° |
| 2026-04-29 00:14 | 33.18323 | -97.41244 | 4449 ft | 227 kts | 83° |
| 2026-04-29 00:14 | 33.18497 | -97.39408 | 4207 ft | 223 kts | 83° |
| 2026-04-29 00:14 | 33.18370 | -97.37623 | 3965 ft | 215 kts | 115° |
| 2026-04-29 00:15 | 33.17410 | -97.36337 | 3746 ft | 205 kts | 151° |
| 2026-04-29 00:15 | 33.16154 | -97.35569 | 3537 ft | 201 kts | 161° |
| 2026-04-29 00:15 | 33.14836 | -97.35048 | 3332 ft | 199 kts | 168° |
| 2026-04-29 00:15 | 33.13490 | -97.34708 | 3152 ft | 196 kts | 173° |
| 2026-04-29 00:16 | 33.12169 | -97.34454 | 3067 ft | 189 kts | 174° |
| 2026-04-29 00:16 | 33.10887 | -97.34221 | 3025 ft | 182 kts | 174° |
| 2026-04-29 00:16 | 33.09643 | -97.33987 | 2770 ft | 189 kts | 174° |
| 2026-04-29 00:16 | 33.08280 | -97.33747 | 2409 ft | 197 kts | 174° |
| 2026-04-29 00:17 | 33.06972 | -97.33498 | 2234 ft | 183 kts | 172° |
| 2026-04-29 00:17 | 33.05753 | -97.33250 | 1981 ft | 173 kts | 173° |
| 2026-04-29 00:17 | 33.04672 | -97.33023 | 1727 ft | 145 kts | 173° |
| 2026-04-29 00:17 | 33.03720 | -97.32826 | 1512 ft | 138 kts | 171° |
| 2026-04-29 00:18 | 33.02791 | -97.32640 | 1352 ft | 129 kts | 167° |
| 2026-04-29 00:18 | 33.01937 | -97.32432 | 1121 ft | 121 kts | 168° |
| 2026-04-29 00:18 | 33.01153 | -97.32278 | 893 ft | 108 kts | 167° |
| 2026-04-29 00:18 | 33.00426 | -97.32129 | 758 ft | 104 kts | 166° |
| 2026-04-29 00:19 | 32.99866 | -97.32011 | 720 ft | 27 kts | 171° |
| 2026-04-29 00:19 | 32.99802 | -97.31999 | 718 ft | 3 kts | 171° |
| 2026-04-29 00:19 | 32.99777 | -97.31953 | 719 ft | 10 kts | 83° |
| 2026-04-29 00:19 | 32.99780 | -97.31936 | 718 ft | 5 kts | 78° |
| 2026-04-29 00:20 | 32.99778 | -97.31901 | 719 ft | 0 kts | 109° |
| 2026-04-29 00:22 | 32.99769 | -97.31880 | 720 ft | 6 kts | 123° |
| 2026-04-29 00:22 | 32.99728 | -97.31855 | 721 ft | 9 kts | 169° |
| 2026-04-29 00:22 | 32.99645 | -97.31837 | 718 ft | 15 kts | 170° |
| 2026-04-29 00:22 | 32.99544 | -97.31817 | 717 ft | 11 kts | 171° |
| 2026-04-29 00:23 | 32.99451 | -97.31798 | 719 ft | 16 kts | 169° |
| 2026-04-29 00:23 | 32.99338 | -97.31773 | 716 ft | 14 kts | 171° |
| 2026-04-29 00:23 | 32.99259 | -97.31727 | 710 ft | 16 kts | 110° |
| 2026-04-29 00:23 | 32.99274 | -97.31583 | 711 ft | 19 kts | 73° |
| 2026-04-29 00:24 | 32.99331 | -97.31546 | 711 ft | 13 kts | 356° |
| 2026-04-29 00:24 | 32.99439 | -97.31577 | 717 ft | 8 kts | 319° |
| 2026-04-29 00:24 | 32.99442 | -97.31649 | 717 ft | 3 kts | 258° |
| 2026-04-29 00:24 | 32.99441 | -97.31654 | 716 ft | 0 kts | 257° |